Time;durP1;ratioP1;P1;durP2;ratioP2;P2;SDS_P1;SDS_P2;PMS_P1;PMS_P2;Temp;Humidity;BMP_temperature;BMP_pressure;BME280_temperature;BME280_humidity;BME280_pressure;Samples;Min_cycle;Max_cycle;Signal;HPM_P1;HPM_P2
2022/04/21 00:00:21;;;;;;;10.27;7.13;;;7.50;96.40;;;;;;4908513;29;20068;-72
2022/04/21 00:02:49;;;;;;;11.23;7.43;;;7.50;96.50;;;;;;4900503;29;20206;-72
2022/04/21 00:05:15;;;;;;;10.68;7.38;;;7.50;96.60;;;;;;4909117;29;20485;-72
2022/04/21 00:07:41;;;;;;;10.23;7.53;;;7.60;96.40;;;;;;4900576;29;20028;-72
2022/04/21 00:10:08;;;;;;;10.13;7.73;;;7.50;96.50;;;;;;4904120;29;20038;-72
2022/04/21 00:12:34;;;;;;;11.82;8.18;;;7.60;96.30;;;;;;4905133;29;20035;-72
2022/04/21 00:15:05;;;;;;;12.35;7.65;;;7.70;96.40;;;;;;4906379;29;20027;-72
2022/04/21 00:17:32;;;;;;;11.85;7.65;;;7.60;96.30;;;;;;4901074;29;20173;-72
2022/04/21 00:19:58;;;;;;;;;;;7.60;96.30;;;;;;4913436;29;20087;-72
2022/04/21 00:25:08;;;;;;;14.18;8.77;;;7.70;96.40;;;;;;4913562;29;20034;-74
2022/04/21 00:27:43;;;;;;;12.82;8.70;;;7.60;96.40;;;;;;4902437;29;20028;-73
2022/04/21 00:30:11;;;;;;;13.70;9.20;;;7.60;96.50;;;;;;4909010;29;20020;-72
2022/04/21 00:32:38;;;;;;;13.93;9.27;;;7.60;96.50;;;;;;4903184;29;20071;-73
2022/04/21 00:35:05;;;;;;;13.73;8.88;;;7.60;96.80;;;;;;4910294;29;20016;-72
2022/04/21 00:37:31;;;;;;;16.50;9.57;;;7.60;96.90;;;;;;4903872;29;20032;-72
2022/04/21 00:39:59;;;;;;;12.13;8.97;;;7.60;97.00;;;;;;4904246;29;20031;-72
2022/04/21 00:42:26;;;;;;;12.95;8.63;;;7.50;97.40;;;;;;4916878;29;20044;-73
2022/04/21 00:44:53;;;;;;;13.32;8.25;;;7.50;97.60;;;;;;4909107;29;20016;-73
2022/04/21 00:47:20;;;;;;;11.48;7.90;;;7.40;97.60;;;;;;4913346;29;20489;-73
2022/04/21 00:49:46;;;;;;;12.25;8.40;;;7.40;97.80;;;;;;4901417;29;20025;-75
2022/04/21 00:52:15;;;;;;;12.95;8.65;;;7.30;97.80;;;;;;4909550;29;20020;-74
2022/04/21 00:54:42;;;;;;;16.95;8.85;;;7.30;97.90;;;;;;4908740;29;20080;-72
2022/04/21 00:57:08;;;;;;;12.60;8.57;;;7.20;98.30;;;;;;4907371;29;20027;-72
2022/04/21 00:59:36;;;;;;;10.38;8.13;;;7.20;98.50;;;;;;4902683;29;20032;-73
2022/04/21 01:04:48;;;;;;;13.93;8.60;;;7.10;99.00;;;;;;4896052;29;20083;-73
2022/04/21 01:07:14;;;;;;;;;;;7.00;98.90;;;;;;4926923;29;20035;-73
2022/04/21 01:09:42;;;;;;;14.48;8.75;;;7.00;99.10;;;;;;4912533;29;19911;-73
2022/04/21 01:12:09;;;;;;;12.50;8.50;;;7.00;99.30;;;;;;4905089;29;20028;-73
2022/04/21 01:14:38;;;;;;;12.50;8.85;;;6.90;99.40;;;;;;4904240;29;20032;-73
2022/04/21 01:17:09;;;;;;;11.60;8.45;;;6.90;99.50;;;;;;4916335;29;20470;-73
2022/04/21 01:19:35;;;;;;;12.55;9.70;;;6.80;99.80;;;;;;4918122;29;20024;-73
2022/04/21 01:22:03;;;;;;;14.10;9.02;;;6.80;99.40;;;;;;4923651;29;20039;-73
2022/04/21 01:24:30;;;;;;;12.38;8.50;;;6.80;99.50;;;;;;4911885;29;20040;-72
2022/04/21 01:27:00;;;;;;;12.07;8.18;;;6.80;99.70;;;;;;4909779;29;20063;-73
2022/04/21 01:29:28;;;;;;;12.23;8.13;;;6.70;99.90;;;;;;4907561;29;20028;-73
2022/04/21 01:31:55;;;;;;;11.68;8.27;;;6.70;99.90;;;;;;4901230;29;20024;-73
2022/04/21 01:34:21;;;;;;;13.48;8.77;;;6.70;99.90;;;;;;4906494;29;20024;-73
2022/04/21 01:42:16;;;;;;;13.05;8.80;;;6.60;99.90;;;;;;4911820;29;20185;-77
2022/04/21 01:44:43;;;;;;;12.13;9.40;;;6.60;99.90;;;;;;4904372;29;20023;-74
2022/04/21 01:47:11;;;;;;;11.57;8.32;;;6.60;99.90;;;;;;4915511;29;20642;-75
2022/04/21 01:49:38;;;;;;;13.15;8.70;;;6.50;99.90;;;;;;4908713;29;20028;-73
2022/04/21 01:52:04;;;;;;;;;;;6.50;99.90;;;;;;4916864;29;20027;-73
2022/04/21 01:54:29;;;;;;;12.75;8.60;;;6.50;99.90;;;;;;4902626;29;20638;-73
2022/04/21 01:56:55;;;;;;;12.90;8.10;;;6.50;99.90;;;;;;4901638;29;20071;-72
2022/04/21 01:59:21;;;;;;;13.47;9.43;;;6.50;99.90;;;;;;4911794;29;20106;-72
2022/04/21 02:01:47;;;;;;;12.07;8.30;;;6.60;99.90;;;;;;4908698;29;20029;-74
2022/04/21 02:04:15;;;;;;;13.60;8.68;;;6.60;99.90;;;;;;4918976;29;20032;-75
2022/04/21 02:06:41;;;;;;;11.82;8.65;;;6.50;99.90;;;;;;4908193;29;20446;-77
2022/04/21 02:09:06;;;;;;;14.80;9.20;;;6.50;99.90;;;;;;4924291;29;20032;-73
2022/04/21 02:11:32;;;;;;;12.43;9.07;;;6.60;99.90;;;;;;4922896;29;20457;-73
2022/04/21 02:13:58;;;;;;;11.87;7.90;;;6.50;99.90;;;;;;4908448;29;20035;-73
2022/04/21 02:16:23;;;;;;;12.40;8.63;;;6.50;99.90;;;;;;4912247;29;20039;-73
2022/04/21 02:18:51;;;;;;;13.07;8.80;;;6.50;99.90;;;;;;4917698;29;21125;-74
2022/04/21 02:21:17;;;;;;;12.93;8.55;;;6.40;99.90;;;;;;4907776;29;20044;-73
2022/04/21 02:23:42;;;;;;;10.50;8.23;;;6.40;99.90;;;;;;4906064;29;20028;-74
2022/04/21 02:26:11;;;;;;;12.00;8.70;;;6.40;99.90;;;;;;4909737;29;20077;-73
2022/04/21 02:28:38;;;;;;;14.43;8.82;;;6.30;99.90;;;;;;4923308;29;20019;-73
2022/04/21 02:31:05;;;;;;;13.90;9.02;;;6.30;99.90;;;;;;4907121;29;20019;-73
2022/04/21 02:33:31;;;;;;;12.02;8.10;;;6.30;99.90;;;;;;4911125;29;20047;-73
2022/04/21 02:35:58;;;;;;;13.88;9.27;;;6.30;99.90;;;;;;4911557;29;20028;-72
2022/04/21 02:38:25;;;;;;;14.02;9.15;;;6.30;99.90;;;;;;4914898;29;21034;-76
2022/04/21 02:40:52;;;;;;;12.27;8.32;;;6.30;99.90;;;;;;4904115;29;20490;-73
2022/04/21 02:43:18;;;;;;;14.88;8.90;;;6.20;99.90;;;;;;4913857;29;20693;-72
2022/04/21 02:45:45;;;;;;;12.30;8.98;;;6.20;99.90;;;;;;4908804;29;20032;-75
2022/04/21 02:48:14;;;;;;;12.48;8.30;;;6.20;99.90;;;;;;4911098;29;20035;-76
2022/04/21 02:50:41;;;;;;;12.70;8.15;;;6.20;99.90;;;;;;4903364;29;20469;-73
2022/04/21 02:53:08;;;;;;;13.05;8.70;;;6.20;99.90;;;;;;4930853;29;20073;-73
2022/04/21 02:58:20;;;;;;;13.27;8.50;;;6.20;99.90;;;;;;4908376;29;20098;-76
2022/04/21 03:00:47;;;;;;;13.68;8.63;;;6.20;99.90;;;;;;4905885;29;20051;-73
2022/04/21 03:03:13;;;;;;;15.05;8.77;;;6.20;99.90;;;;;;4906933;29;20023;-74
2022/04/21 03:05:38;;;;;;;11.73;8.40;;;6.20;99.90;;;;;;4906711;29;20028;-74
2022/04/21 03:08:04;;;;;;;15.57;9.77;;;6.20;99.90;;;;;;4933189;28;20039;-73
2022/04/21 03:10:32;;;;;;;13.23;9.07;;;6.20;99.90;;;;;;4907273;29;20104;-73
2022/04/21 03:12:58;;;;;;;14.23;9.02;;;6.20;99.90;;;;;;4908765;29;21293;-76
2022/04/21 03:15:25;;;;;;;12.65;8.23;;;6.20;99.90;;;;;;4918529;29;20031;-73
2022/04/21 03:17:51;;;;;;;;;;;6.20;99.90;;;;;;4903831;29;20036;-74
2022/04/21 03:25:48;;;;;;;14.50;10.05;;;6.10;99.90;;;;;;4905740;29;20086;-75
2022/04/21 03:28:15;;;;;;;14.80;9.38;;;6.20;99.90;;;;;;4913868;29;20493;-73
2022/04/21 03:30:41;;;;;;;14.90;9.70;;;6.10;99.90;;;;;;4906564;29;20051;-73
2022/04/21 03:33:07;;;;;;;16.53;9.80;;;6.10;99.90;;;;;;4909671;29;20059;-75
2022/04/21 03:35:34;;;;;;;15.10;9.97;;;6.10;99.90;;;;;;4905421;29;20158;-73
2022/04/21 03:38:00;;;;;;;19.00;10.07;;;6.00;99.90;;;;;;4909813;29;20070;-73
2022/04/21 03:40:25;;;;;;;14.57;9.70;;;6.00;99.90;;;;;;4904331;29;20027;-75
2022/04/21 03:42:52;;;;;;;15.03;9.90;;;6.00;99.90;;;;;;4903960;29;20028;-74
2022/04/21 03:45:17;;;;;;;15.88;9.77;;;6.00;99.90;;;;;;4913548;29;20031;-73
2022/04/21 03:47:43;;;;;;;13.60;9.67;;;6.00;99.90;;;;;;4905904;29;20067;-79
2022/04/21 03:50:09;;;;;;;16.07;9.73;;;5.90;99.90;;;;;;4906668;29;20397;-74
2022/04/21 03:52:34;;;;;;;15.40;10.33;;;5.90;99.90;;;;;;4913629;29;20687;-73
2022/04/21 03:55:01;;;;;;;16.03;9.60;;;5.90;99.90;;;;;;4926844;29;20738;-75
2022/04/21 03:57:28;;;;;;;18.33;10.70;;;5.90;99.90;;;;;;4924674;29;20048;-74
2022/04/21 03:59:55;;;;;;;;;;;5.90;99.90;;;;;;4902347;29;20032;-75
2022/04/21 04:02:21;;;;;;;15.02;9.77;;;5.90;99.90;;;;;;4905870;29;19998;-73
2022/04/21 04:04:47;;;;;;;16.03;9.77;;;5.80;99.90;;;;;;4904222;29;20119;-73
2022/04/21 04:12:44;;;;;;;16.27;10.85;;;5.80;99.90;;;;;;4911072;29;20497;-74
2022/04/21 04:15:10;;;;;;;18.42;10.13;;;5.80;99.90;;;;;;4913965;29;20154;-73
2022/04/21 04:17:36;;;;;;;16.73;10.43;;;5.80;99.90;;;;;;4925722;29;20773;-73
2022/04/21 04:20:03;;;;;;;15.05;10.07;;;5.80;99.90;;;;;;4910210;29;20038;-74
2022/04/21 04:22:29;;;;;;;17.00;10.80;;;5.80;99.90;;;;;;4908283;29;20044;-74
2022/04/21 04:24:56;;;;;;;17.37;11.47;;;5.80;99.90;;;;;;4905565;29;20087;-73
2022/04/21 04:27:22;;;;;;;15.20;10.07;;;5.80;99.90;;;;;;4910455;29;20134;-74
2022/04/21 04:29:48;;;;;;;14.85;9.73;;;5.80;99.90;;;;;;4916937;29;20039;-74
2022/04/21 04:32:15;;;;;;;16.53;10.57;;;5.80;99.90;;;;;;4914542;29;20028;-75
2022/04/21 04:34:42;;;;;;;;;;;5.90;99.90;;;;;;4910667;29;20022;-73
2022/04/21 04:37:10;;;;;;;16.13;9.77;;;5.90;99.90;;;;;;4908279;29;20419;-74
2022/04/21 04:39:40;;;;;;;15.48;10.38;;;5.90;99.90;;;;;;4912880;29;20386;-72
2022/04/21 04:42:20;;;;;;;15.85;10.57;;;6.00;99.90;;;;;;4927346;29;20032;-73
2022/04/21 04:44:49;;;;;;;15.70;10.50;;;6.10;99.90;;;;;;4907037;29;20577;-74
2022/04/21 04:47:15;;;;;;;15.65;10.57;;;6.20;99.90;;;;;;4916757;29;20035;-74
2022/04/21 04:49:42;;;;;;;17.23;11.27;;;6.30;99.90;;;;;;4903212;29;20074;-73
2022/04/21 04:52:08;;;;;;;;;;;6.60;99.90;;;;;;4922025;29;20474;-76
2022/04/21 04:54:34;;;;;;;14.35;9.55;;;7.00;99.90;;;;;;4914135;29;19970;-72
2022/04/21 04:57:03;;;;;;;13.90;10.00;;;7.60;99.70;;;;;;4899434;29;20036;-73
2022/04/21 04:59:29;;;;;;;16.58;9.98;;;8.20;98.40;;;;;;4920018;29;20013;-72
2022/04/21 05:01:55;;;;;;;14.98;9.43;;;8.70;96.80;;;;;;4900431;29;20111;-72
2022/04/21 05:04:21;;;;;;;13.67;9.33;;;8.80;96.20;;;;;;4906302;29;20678;-73
2022/04/21 05:06:52;;;;;;;15.38;9.65;;;8.60;96.10;;;;;;4902642;29;20023;-73
2022/04/21 05:09:21;;;;;;;13.80;9.48;;;8.70;96.20;;;;;;4909424;29;20059;-73
2022/04/21 05:11:52;;;;;;;16.23;10.57;;;8.50;96.30;;;;;;4899666;29;20080;-73
2022/04/21 05:14:22;;;;;;;15.70;9.85;;;8.50;96.30;;;;;;4919611;29;20119;-73
2022/04/21 05:16:48;;;;;;;19.83;10.65;;;8.70;96.70;;;;;;4910935;29;20091;-73
2022/04/21 05:19:19;;;;;;;15.32;10.25;;;8.50;96.60;;;;;;4919152;29;20112;-72
2022/04/21 05:21:46;;;;;;;13.35;9.70;;;8.60;96.10;;;;;;4905740;29;20044;-71
2022/04/21 05:24:13;;;;;;;17.35;10.35;;;8.80;96.20;;;;;;4906516;29;20406;-72
2022/04/21 05:26:40;;;;;;;15.27;10.57;;;8.80;95.90;;;;;;4925788;29;20059;-71
2022/04/21 05:31:58;;;;;;;15.30;10.35;;;9.10;95.50;;;;;;4906650;29;20034;-72
2022/04/21 05:34:25;;;;;;;14.55;10.75;;;9.10;95.60;;;;;;4915989;29;20019;-73
2022/04/21 05:36:52;;;;;;;15.40;10.38;;;9.20;94.90;;;;;;4921716;29;20024;-74
2022/04/21 05:39:19;;;;;;;15.93;10.80;;;9.40;94.90;;;;;;4917146;29;20028;-73
2022/04/21 05:41:45;;;;;;;16.88;10.55;;;9.60;95.00;;;;;;4907062;29;20082;-73
2022/04/21 05:44:12;;;;;;;12.45;9.25;;;9.80;94.90;;;;;;4912837;29;20023;-73
2022/04/21 05:46:37;;;;;;;;;;;10.50;94.00;;;;;;4912516;29;20111;-73
2022/04/21 05:49:04;;;;;;;13.05;9.18;;;11.70;91.30;;;;;;4910816;29;20473;-72
2022/04/21 05:51:30;;;;;;;;;;;13.00;86.50;;;;;;4915292;29;20027;-72
2022/04/21 05:53:58;;;;;;;13.77;10.50;;;14.50;79.90;;;;;;4911299;29;19915;-73
2022/04/21 05:56:25;;;;;;;11.93;9.70;;;15.70;72.70;;;;;;4905011;29;20375;-72
2022/04/21 05:58:51;;;;;;;13.07;10.50;;;17.10;67.50;;;;;;4909351;29;20027;-73
2022/04/21 06:01:18;;;;;;;14.13;11.35;;;18.50;61.80;;;;;;4907628;29;20135;-73
2022/04/21 06:03:44;;;;;;;16.95;11.30;;;19.10;57.80;;;;;;4904564;29;20537;-73
2022/04/21 06:06:11;;;;;;;;;;;19.50;55.60;;;;;;4914672;29;20028;-73
2022/04/21 06:08:39;;;;;;;14.73;11.23;;;20.20;53.60;;;;;;4908827;29;19917;-73
2022/04/21 06:11:05;;;;;;;14.77;11.75;;;21.10;51.10;;;;;;4908996;29;20144;-73
2022/04/21 06:13:31;;;;;;;16.40;12.07;;;21.80;49.10;;;;;;4914066;29;20107;-73
2022/04/21 06:15:58;;;;;;;13.15;11.48;;;22.30;47.10;;;;;;4914315;29;20066;-74
2022/04/21 06:18:25;;;;;;;13.63;12.20;;;21.90;46.80;;;;;;4910993;29;20036;-73
2022/04/21 06:20:52;;;;;;;13.30;11.90;;;22.10;46.00;;;;;;4909490;29;20083;-74
2022/04/21 06:23:18;;;;;;;13.60;11.20;;;22.80;44.80;;;;;;4910202;29;20032;-73
2022/04/21 06:25:44;;;;;;;13.68;11.77;;;22.60;43.40;;;;;;4903390;29;20032;-73
2022/04/21 06:28:11;;;;;;;;;;;21.90;44.40;;;;;;4911238;29;20608;-73
2022/04/21 06:30:37;;;;;;;14.68;12.73;;;22.50;43.90;;;;;;4913354;29;19907;-73
2022/04/21 06:33:02;;;;;;;13.80;12.35;;;22.20;43.70;;;;;;4906797;29;20111;-73
2022/04/21 06:35:28;;;;;;;;;;;21.80;43.50;;;;;;4910323;29;21478;-73
2022/04/21 06:37:56;;;;;;;15.57;12.48;;;21.40;44.40;;;;;;4908857;29;19915;-73
2022/04/21 06:40:23;;;;;;;14.25;12.68;;;22.00;43.60;;;;;;4906661;29;20034;-73
2022/04/21 06:42:49;;;;;;;13.27;11.65;;;20.70;44.50;;;;;;4907430;29;20024;-73
2022/04/21 06:48:04;;;;;;;14.45;12.95;;;21.10;44.90;;;;;;4913155;29;20703;-73
2022/04/21 06:50:38;;;;;;;14.50;12.90;;;21.10;44.50;;;;;;4909669;29;20055;-73
2022/04/21 06:53:06;;;;;;;15.13;13.25;;;20.80;43.90;;;;;;4916363;29;20062;-73
2022/04/21 06:55:32;;;;;;;14.35;12.65;;;21.20;44.00;;;;;;4917833;29;20462;-73
2022/04/21 06:58:01;;;;;;;13.98;12.23;;;21.50;44.20;;;;;;4911278;29;20088;-74
2022/04/21 07:00:28;;;;;;;15.05;12.25;;;20.90;44.10;;;;;;4913903;29;20052;-73
2022/04/21 07:02:55;;;;;;;14.02;12.45;;;21.60;44.20;;;;;;4918303;29;20481;-73
2022/04/21 07:05:22;;;;;;;12.88;11.57;;;22.50;42.90;;;;;;4914005;29;20088;-73
2022/04/21 07:07:49;;;;;;;14.10;12.70;;;22.50;42.80;;;;;;4913690;29;20067;-73
2022/04/21 07:10:15;;;;;;;15.27;12.95;;;22.10;42.90;;;;;;4905206;29;20028;-73
2022/04/21 07:12:41;;;;;;;14.10;12.07;;;22.20;42.70;;;;;;4906610;29;20024;-74
2022/04/21 07:15:09;;;;;;;;;;;22.70;42.80;;;;;;4913566;29;20066;-73
2022/04/21 07:17:36;;;;;;;14.93;12.63;;;23.20;41.60;;;;;;4913651;29;19911;-73
2022/04/21 07:20:07;;;;;;;13.40;12.00;;;22.20;41.80;;;;;;4915852;29;20028;-73
2022/04/21 07:22:33;;;;;;;15.18;13.07;;;22.70;42.20;;;;;;4916636;29;20488;-74
2022/04/21 07:25:01;;;;;;;14.27;12.45;;;22.90;41.90;;;;;;4913399;29;20042;-74
2022/04/21 07:27:27;;;;;;;15.10;12.73;;;23.40;41.50;;;;;;4911157;29;20038;-73
2022/04/21 07:29:53;;;;;;;16.13;13.20;;;23.80;40.20;;;;;;4905304;29;20016;-75
2022/04/21 07:32:25;;;;;;;;;;;24.20;39.70;;;;;;4909961;29;20023;-73
2022/04/21 07:34:50;;;;;;;17.08;13.23;;;24.00;39.70;;;;;;4911554;29;19918;-74
2022/04/21 07:37:16;;;;;;;15.00;13.40;;;21.90;40.90;;;;;;4912038;29;20028;-73
2022/04/21 07:39:43;;;;;;;16.50;14.30;;;21.00;43.50;;;;;;4924345;29;20029;-73
2022/04/21 07:42:10;;;;;;;15.63;13.75;;;21.40;43.70;;;;;;4907206;29;20116;-73
2022/04/21 07:44:36;;;;;;;15.30;13.05;;;21.30;43.70;;;;;;4911327;29;20020;-74
2022/04/21 07:47:06;;;;;;;14.27;12.82;;;22.10;43.10;;;;;;4904580;29;20544;-73
2022/04/21 07:49:48;;;;;;;14.43;12.52;;;22.70;42.70;;;;;;4911413;29;20028;-73
2022/04/21 07:55:19;;;;;;;13.52;12.13;;;23.90;40.80;;;;;;4908442;29;20038;-73
2022/04/21 07:57:46;;;;;;;15.32;12.68;;;24.60;39.90;;;;;;4926827;29;20083;-74
2022/04/21 08:00:15;;;;;;;16.83;12.48;;;24.80;39.70;;;;;;4901673;29;20947;-73
2022/04/21 08:02:43;;;;;;;15.35;13.07;;;24.00;40.40;;;;;;4907976;29;20048;-73
2022/04/21 08:05:10;;;;;;;14.55;13.07;;;23.80;41.00;;;;;;4912241;29;20031;-73
2022/04/21 08:07:37;;;;;;;14.82;13.32;;;23.90;40.70;;;;;;4912708;29;20020;-73
2022/04/21 08:10:07;;;;;;;14.73;12.70;;;23.40;41.00;;;;;;4908583;29;20107;-73
2022/04/21 08:12:51;;;;;;;14.27;12.55;;;23.00;41.60;;;;;;4906976;29;20095;-74
2022/04/21 08:15:27;;;;;;;13.40;12.02;;;23.70;41.80;;;;;;4910547;29;20027;-73
2022/04/21 08:17:54;;;;;;;14.85;13.30;;;23.50;41.30;;;;;;4925105;29;20020;-74
2022/04/21 08:20:23;;;;;;;15.82;13.57;;;23.50;41.60;;;;;;4905952;29;20035;-74
2022/04/21 08:22:49;;;;;;;14.40;12.25;;;23.50;41.70;;;;;;4910959;29;20039;-73
2022/04/21 08:33:35;;;;;;;14.55;13.05;;;21.90;43.30;;;;;;4905164;29;20111;-73
2022/04/21 08:36:01;;;;;;;15.57;14.00;;;23.30;42.50;;;;;;4908715;29;20028;-74
2022/04/21 08:38:29;;;;;;;15.98;14.25;;;23.80;41.30;;;;;;4916461;29;20497;-74
2022/04/21 08:40:56;;;;;;;15.25;13.65;;;23.40;41.10;;;;;;4907161;29;20039;-73
2022/04/21 08:43:24;;;;;;;14.82;13.25;;;23.00;41.30;;;;;;4913028;29;20028;-73
2022/04/21 08:45:51;;;;;;;17.67;13.82;;;23.60;41.10;;;;;;4915676;29;20477;-74
2022/04/21 08:48:21;;;;;;;23.45;13.30;;;24.10;40.60;;;;;;4905013;29;20029;-73
2022/04/21 08:50:49;;;;;;;16.10;14.48;;;24.60;40.00;;;;;;4907841;29;20537;-74
2022/04/21 08:53:21;;;;;;;15.50;13.90;;;23.80;40.00;;;;;;4913142;29;20175;-73
2022/04/21 08:55:49;;;;;;;15.32;13.73;;;23.90;40.20;;;;;;4909576;29;20062;-73
2022/04/21 08:58:18;;;;;;;15.05;13.18;;;23.90;40.00;;;;;;4909209;29;20024;-73
2022/04/21 09:00:44;;;;;;;16.75;13.73;;;24.30;40.00;;;;;;4906463;29;20024;-74
2022/04/21 09:03:11;;;;;;;14.85;13.35;;;25.00;39.30;;;;;;4910176;29;20782;-72
2022/04/21 09:05:38;;;;;;;14.85;13.35;;;24.80;39.40;;;;;;4908964;29;20090;-72
2022/04/21 09:08:04;;;;;;;14.32;12.93;;;25.30;38.90;;;;;;4906845;29;20034;-72
2022/04/21 09:10:32;;;;;;;17.42;13.68;;;25.90;38.30;;;;;;4910145;29;20032;-74
2022/04/21 09:13:03;;;;;;;15.20;13.23;;;25.60;38.30;;;;;;4906569;29;20561;-73
2022/04/21 09:15:33;;;;;;;15.48;13.38;;;25.90;38.70;;;;;;4907633;29;20083;-73
2022/04/21 09:18:01;;;;;;;15.15;13.55;;;26.10;38.40;;;;;;4912766;29;20735;-73
2022/04/21 09:20:36;;;;;;;14.55;13.18;;;26.60;38.10;;;;;;4906855;29;20967;-73
2022/04/21 09:23:05;;;;;;;13.85;12.45;;;26.20;37.30;;;;;;4911201;29;20085;-72
2022/04/21 09:25:49;;;;;;;14.40;13.00;;;25.80;37.60;;;;;;4912053;29;20039;-74
2022/04/21 09:28:22;;;;;;;15.43;13.88;;;26.00;37.60;;;;;;4904404;29;20038;-73
2022/04/21 09:30:51;;;;;;;14.25;12.95;;;25.00;37.80;;;;;;4908486;29;20087;-73
2022/04/21 09:33:32;;;;;;;14.93;13.43;;;25.30;38.00;;;;;;4922239;29;20024;-72
2022/04/21 09:36:02;;;;;;;15.60;14.00;;;24.90;38.00;;;;;;4906520;29;20102;-74
2022/04/21 09:38:28;;;;;;;16.23;14.25;;;24.50;38.50;;;;;;4916924;29;20823;-73
2022/04/21 09:40:54;;;;;;;16.95;15.35;;;24.50;39.70;;;;;;4915474;29;20027;-74
2022/04/21 09:43:33;;;;;;;16.00;14.43;;;24.50;38.60;;;;;;4906902;29;20086;-74
2022/04/21 09:46:22;;;;;;;13.88;12.52;;;23.70;39.20;;;;;;4910782;29;20035;-73
2022/04/21 09:48:56;;;;;;;15.82;14.23;;;23.70;40.10;;;;;;4906963;29;20119;-75
2022/04/21 09:51:29;;;;;;;17.02;13.95;;;23.30;40.10;;;;;;4909313;29;20075;-74
2022/04/21 09:54:05;;;;;;;14.48;12.18;;;22.80;40.80;;;;;;4924022;29;20087;-74
2022/04/21 09:56:33;;;;;;;14.25;12.52;;;23.20;40.40;;;;;;4912819;29;20106;-74
2022/04/21 09:59:01;;;;;;;15.48;13.88;;;23.60;40.20;;;;;;4912008;29;20030;-75
2022/04/21 10:01:28;;;;;;;16.13;12.73;;;23.90;39.10;;;;;;4914314;29;20765;-73
2022/04/21 10:03:55;;;;;;;17.70;13.05;;;23.90;39.60;;;;;;4911922;29;20024;-73
2022/04/21 10:06:22;;;;;;;14.60;13.15;;;24.10;39.60;;;;;;4911977;29;20035;-73
2022/04/21 10:08:51;;;;;;;12.20;10.95;;;24.00;39.00;;;;;;4912321;29;20043;-75
2022/04/21 10:11:23;;;;;;;13.18;11.80;;;23.00;39.80;;;;;;4905209;29;20028;-75
2022/04/21 10:13:53;;;;;;;12.63;11.23;;;22.60;40.30;;;;;;4912064;29;20030;-73
2022/04/21 10:16:19;;;;;;;11.75;10.55;;;23.20;40.20;;;;;;4907176;29;20112;-72
2022/04/21 10:18:57;;;;;;;12.48;11.18;;;23.80;39.70;;;;;;4919055;29;20158;-73
2022/04/21 10:21:51;;;;;;;12.98;11.68;;;24.70;38.50;;;;;;4907573;29;20040;-74
2022/04/21 10:24:25;;;;;;;12.77;10.70;;;23.40;39.00;;;;;;4906962;29;20079;-75
2022/04/21 10:26:51;;;;;;;13.88;12.38;;;23.20;40.40;;;;;;4919808;29;20028;-74
2022/04/21 10:29:27;;;;;;;15.13;11.45;;;22.40;40.60;;;;;;4910734;29;20028;-75
2022/04/21 10:32:00;;;;;;;11.60;10.40;;;22.20;40.70;;;;;;4912115;29;20020;-74
2022/04/21 10:34:45;;;;;;;14.38;12.18;;;22.90;41.00;;;;;;4924949;29;20123;-73
2022/04/21 10:37:15;;;;;;;15.20;11.23;;;22.60;41.10;;;;;;4920271;29;20031;-75
2022/04/21 10:40:01;;;;;;;13.52;10.70;;;22.70;40.30;;;;;;4924807;29;20046;-73
2022/04/21 10:42:27;;;;;;;12.02;9.77;;;23.00;40.20;;;;;;4907594;29;20039;-73
2022/04/21 10:44:54;;;;;;;12.70;10.05;;;23.10;40.10;;;;;;4913041;29;20056;-74
2022/04/21 10:47:38;;;;;;;12.27;10.00;;;23.10;39.90;;;;;;4909342;29;20024;-76
2022/04/21 10:50:20;;;;;;;11.23;9.98;;;22.70;40.10;;;;;;4910695;29;20869;-74
2022/04/21 10:58:34;;;;;;;13.27;10.13;;;20.30;43.60;;;;;;4910204;29;20124;-72
2022/04/21 11:01:09;;;;;;;13.48;9.93;;;20.30;42.90;;;;;;4912546;29;20019;-72
2022/04/21 11:03:38;;;;;;;14.27;10.30;;;19.60;45.30;;;;;;4910667;29;20107;-72
2022/04/21 11:06:09;;;;;;;15.57;9.32;;;19.50;45.10;;;;;;4911405;29;20035;-72
2022/04/21 11:08:35;;;;;;;12.32;9.77;;;19.60;45.10;;;;;;4916686;29;20012;-72
2022/04/21 11:11:02;;;;;;;14.50;10.43;;;19.40;45.90;;;;;;4918125;29;20024;-71
2022/04/21 11:13:49;;;;;;;11.63;9.93;;;18.80;45.60;;;;;;4903793;29;20754;-72
2022/04/21 11:16:45;;;;;;;12.20;10.23;;;18.50;45.80;;;;;;4901294;29;20027;-72
2022/04/21 11:19:28;;;;;;;16.83;10.77;;;17.90;47.20;;;;;;4904623;29;20083;-72
2022/04/21 11:22:06;;;;;;;11.45;10.10;;;18.10;47.10;;;;;;4907598;29;20610;-71
2022/04/21 11:24:58;;;;;;;18.70;10.77;;;18.40;47.10;;;;;;4912817;29;20027;-71
2022/04/21 11:27:26;;;;;;;13.45;9.93;;;18.40;47.50;;;;;;4925955;29;20063;-72
2022/04/21 11:29:52;;;;;;;13.35;11.40;;;18.40;48.20;;;;;;4907071;29;20028;-72
2022/04/21 11:32:19;;;;;;;13.38;10.50;;;17.50;48.30;;;;;;4913188;29;20071;-71
2022/04/21 11:35:09;;;;;;;14.05;10.98;;;17.10;50.40;;;;;;4904596;29;20047;-72
2022/04/21 11:37:54;;;;;;;13.40;9.68;;;16.70;50.60;;;;;;4909397;29;20032;-72
2022/04/21 11:40:32;;;;;;;12.95;9.75;;;16.80;52.20;;;;;;4908162;29;20032;-72
2022/04/21 11:43:19;;;;;;;10.38;7.60;;;17.00;50.60;;;;;;4903994;29;20028;-72
2022/04/21 11:45:58;;;;;;;10.03;6.70;;;17.00;49.30;;;;;;4909624;29;20039;-72
2022/04/21 11:48:37;;;;;;;9.02;6.80;;;17.00;49.40;;;;;;4912361;29;20661;-72
2022/04/21 11:51:03;;;;;;;10.93;6.32;;;17.20;49.10;;;;;;4910507;29;20016;-70
2022/04/21 11:53:29;;;;;;;;;;;17.10;48.90;;;;;;4920811;29;20382;-72
2022/04/21 11:55:56;;;;;;;8.40;6.18;;;17.00;48.90;;;;;;4906822;29;19950;-72
2022/04/21 11:58:29;;;;;;;;;;;16.90;49.00;;;;;;4911248;29;20082;-72
2022/04/21 12:06:58;;;;;;;7.15;5.22;;;17.10;49.20;;;;;;4905412;29;20394;-72
2022/04/21 12:09:26;;;;;;;6.07;4.90;;;17.00;47.50;;;;;;4907412;29;20030;-72
2022/04/21 12:11:52;;;;;;;6.65;5.00;;;17.30;47.60;;;;;;4910739;29;20663;-72
2022/04/21 12:14:18;;;;;;;8.67;5.57;;;17.50;47.30;;;;;;4907185;29;20103;-72
2022/04/21 12:16:55;;;;;;;8.00;5.70;;;17.50;47.90;;;;;;4901918;29;20084;-72
2022/04/21 12:19:32;;;;;;;6.45;5.78;;;17.20;48.80;;;;;;4907839;29;20032;-72
2022/04/21 12:22:07;;;;;;;9.00;5.45;;;17.20;48.30;;;;;;4906949;29;20704;-72
2022/04/21 12:24:45;;;;;;;8.32;6.15;;;17.00;49.60;;;;;;4911939;29;20032;-72
2022/04/21 12:27:26;;;;;;;6.07;5.47;;;17.00;49.10;;;;;;4908849;29;20028;-72
2022/04/21 12:29:59;;;;;;;7.22;5.55;;;17.00;49.40;;;;;;4913063;29;20028;-72
2022/04/21 12:32:27;;;;;;;7.80;5.65;;;17.20;48.70;;;;;;4911804;29;20854;-72
2022/04/21 12:34:56;;;;;;;7.70;5.68;;;17.20;49.60;;;;;;4922272;29;20028;-71
2022/04/21 12:37:27;;;;;;;7.82;5.93;;;16.80;50.60;;;;;;4907239;29;20482;-72
2022/04/21 12:39:54;;;;;;;5.95;5.00;;;16.20;51.60;;;;;;4908200;29;20035;-71
2022/04/21 12:42:20;;;;;;;8.00;4.90;;;16.20;51.70;;;;;;4907728;29;20024;-72
2022/04/21 12:44:46;;;;;;;;;;;16.30;51.50;;;;;;4906478;29;20050;-72
2022/04/21 12:47:17;;;;;;;6.55;4.88;;;16.60;51.80;;;;;;4924210;29;20539;-72
2022/04/21 12:49:55;;;;;;;5.53;4.57;;;16.60;51.30;;;;;;4902481;29;20047;-72
2022/04/21 12:52:31;;;;;;;8.68;5.05;;;16.50;51.70;;;;;;4907882;29;20645;-72
2022/04/21 12:54:58;;;;;;;6.50;4.50;;;16.60;51.10;;;;;;4901477;29;20108;-72
2022/04/21 12:57:24;;;;;;;4.95;4.20;;;16.40;50.80;;;;;;4909623;29;20559;-72
2022/04/21 12:59:51;;;;;;;5.15;4.57;;;16.50;50.70;;;;;;4904047;29;20096;-72
2022/04/21 13:02:18;;;;;;;5.35;4.28;;;16.60;50.90;;;;;;4908561;29;20031;-71
2022/04/21 13:04:46;;;;;;;5.15;4.15;;;16.80;51.10;;;;;;4907365;29;20071;-72
2022/04/21 13:07:12;;;;;;;5.28;4.20;;;16.70;50.50;;;;;;4905258;29;20358;-72
2022/04/21 13:09:37;;;;;;;4.70;4.20;;;16.70;50.00;;;;;;4904244;29;20462;-72
2022/04/21 13:12:07;;;;;;;5.37;4.33;;;16.70;49.70;;;;;;4918749;29;20075;-71
2022/04/21 13:14:34;;;;;;;4.60;3.90;;;16.50;50.10;;;;;;4903415;29;20268;-72
2022/04/21 13:16:59;;;;;;;;;;;16.60;49.80;;;;;;4902617;29;20111;-72
2022/04/21 13:19:25;;;;;;;4.70;3.80;;;16.70;50.20;;;;;;4906743;29;20834;-71
2022/04/21 13:21:55;;;;;;;4.50;3.93;;;16.60;49.80;;;;;;4903429;29;20035;-72
2022/04/21 13:24:25;;;;;;;6.53;3.65;;;16.50;50.10;;;;;;4910264;29;20055;-72
2022/04/21 13:26:55;;;;;;;4.53;3.40;;;16.60;49.10;;;;;;4901464;29;20044;-71
2022/04/21 13:29:22;;;;;;;6.13;3.60;;;16.80;50.10;;;;;;4907786;29;20449;-72
2022/04/21 13:34:35;;;;;;;4.43;3.47;;;16.70;49.40;;;;;;4906623;29;20075;-72
2022/04/21 13:37:02;;;;;;;4.63;3.45;;;16.80;48.90;;;;;;4908726;29;20035;-72
2022/04/21 13:39:29;;;;;;;3.22;2.92;;;16.70;49.20;;;;;;4923016;29;20485;-71
2022/04/21 13:41:56;;;;;;;3.65;3.03;;;16.60;49.60;;;;;;4903977;29;20082;-71
2022/04/21 13:44:22;;;;;;;5.22;3.08;;;16.40;50.00;;;;;;4916680;29;20082;-71
2022/04/21 13:46:50;;;;;;;5.00;2.92;;;16.50;50.10;;;;;;4908848;29;20043;-72